Airfield :
LOGIN :

Register | Disclaimer

   EN    FR    IT 

 










Legend :    VFR   Marginal VFR   IFR   Intensive IFR   Very Intensive IFR
Visi :
Ceiling :
>= 8 km
>= 3000ft
5 to 8 km
1000 to 3000 ft
1500m to 5 km
500 to 1000 ft
800 to 1500m
200 to 500 ft
< 800m
< 200 ft
Symbols :   Thunderstorms  Fog  Heavy snow  Heavy precipitations  Wind > 20 kt
SIGMETs :     Misc.  Thunderstorms  Icing  Turbulence  Mountain Waves  Volcanic Ashes






- Airport Elevation : 1375 ft
- IATA code : SCV


LRSV - Suceava Stefan cel Mare

CURRENT METAR :
  • 281630Z 22007KT CAVOK 05/00 Q1005

EXPIRED METARs :
  • 281600Z 17004KT CAVOK 04/00 Q1005
  • 281530Z 16004KT 140V210 CAVOK 05/00 Q1005
  • 281500Z 16003KT 130V190 CAVOK 05/01 Q1005
  • 281430Z 14004KT CAVOK 06/01 Q1006
  • 281400Z 15003KT CAVOK 07/02 Q1006

TAF TAF LRSV
Valid from the 28 at 15:00 until the 29 at 00:00 UTC


281400Z 2815/2824 17006KT CAVOK
BECMG 2817/2819 5000 BR
TEMPO 2820/2824 3000 -RA BR BKN015 BKN040



MET'MAP, your aeronautical weather chart ! - Copyright ORBIFLY December 2007 - Disclaimer

ORBIFLY MET'MAP TEAM :

Programming & Development : Alexandra Zaïnal
Concept & original design : Baudouin d'Aumeries
Assistance for programming : Marc-Olivier Méhu
Technical & hardware support : Manuel Goepfert

Contact : metmap@orbifly.com




SOURCES & CREDITS :

   NOAA